sensor_id;sensor_type;location;lat;lon;timestamp;P1;durP1;ratioP1;P2;durP2;ratioP2
19235;SDS011;9752;54.270;12.470;2023-04-03T00:04:16;5.70;;;5.20;;
19235;SDS011;9752;54.270;12.470;2023-04-03T00:09:17;8.07;;;6.57;;
19235;SDS011;9752;54.270;12.470;2023-04-03T00:14:19;6.43;;;5.80;;
19235;SDS011;9752;54.270;12.470;2023-04-03T00:19:22;6.13;;;5.20;;
19235;SDS011;9752;54.270;12.470;2023-04-03T00:24:24;6.03;;;5.50;;
19235;SDS011;9752;54.270;12.470;2023-04-03T00:29:26;8.40;;;5.93;;
19235;SDS011;9752;54.270;12.470;2023-04-03T00:34:29;7.97;;;6.03;;
19235;SDS011;9752;54.270;12.470;2023-04-03T00:39:31;10.07;;;6.50;;
19235;SDS011;9752;54.270;12.470;2023-04-03T00:50:14;6.40;;;5.87;;
19235;SDS011;9752;54.270;12.470;2023-04-03T00:55:16;6.57;;;5.97;;
19235;SDS011;9752;54.270;12.470;2023-04-03T01:00:19;9.10;;;6.77;;
19235;SDS011;9752;54.270;12.470;2023-04-03T01:05:23;6.30;;;5.60;;
19235;SDS011;9752;54.270;12.470;2023-04-03T01:10:25;6.07;;;5.47;;
19235;SDS011;9752;54.270;12.470;2023-04-03T01:15:27;5.70;;;5.30;;
19235;SDS011;9752;54.270;12.470;2023-04-03T01:20:35;6.23;;;5.80;;
19235;SDS011;9752;54.270;12.470;2023-04-03T01:25:47;7.73;;;6.30;;
19235;SDS011;9752;54.270;12.470;2023-04-03T01:30:51;6.60;;;5.97;;
19235;SDS011;9752;54.270;12.470;2023-04-03T01:36:02;7.50;;;6.27;;
19235;SDS011;9752;54.270;12.470;2023-04-03T01:41:05;7.40;;;6.70;;
19235;SDS011;9752;54.270;12.470;2023-04-03T01:46:07;6.13;;;5.67;;
19235;SDS011;9752;54.270;12.470;2023-04-03T01:51:10;6.10;;;5.70;;
19235;SDS011;9752;54.270;12.470;2023-04-03T01:56:12;6.47;;;5.80;;
19235;SDS011;9752;54.270;12.470;2023-04-03T02:01:14;8.03;;;6.13;;
19235;SDS011;9752;54.270;12.470;2023-04-03T02:06:17;6.50;;;5.87;;
19235;SDS011;9752;54.270;12.470;2023-04-03T02:11:19;6.40;;;6.00;;
19235;SDS011;9752;54.270;12.470;2023-04-03T02:16:21;7.00;;;6.40;;
19235;SDS011;9752;54.270;12.470;2023-04-03T02:21:24;11.07;;;6.40;;
19235;SDS011;9752;54.270;12.470;2023-04-03T02:26:27;8.37;;;6.23;;
19235;SDS011;9752;54.270;12.470;2023-04-03T02:31:29;8.47;;;5.90;;
19235;SDS011;9752;54.270;12.470;2023-04-03T02:36:34;8.23;;;6.37;;
19235;SDS011;9752;54.270;12.470;2023-04-03T02:41:39;6.57;;;5.97;;
19235;SDS011;9752;54.270;12.470;2023-04-03T02:46:51;6.93;;;6.33;;
19235;SDS011;9752;54.270;12.470;2023-04-03T02:51:54;6.97;;;6.37;;
19235;SDS011;9752;54.270;12.470;2023-04-03T02:56:56;7.30;;;6.60;;
19235;SDS011;9752;54.270;12.470;2023-04-03T03:01:58;12.33;;;6.73;;
19235;SDS011;9752;54.270;12.470;2023-04-03T03:07:01;6.63;;;6.23;;
19235;SDS011;9752;54.270;12.470;2023-04-03T03:12:03;7.33;;;6.67;;
19235;SDS011;9752;54.270;12.470;2023-04-03T03:17:05;6.70;;;6.20;;
19235;SDS011;9752;54.270;12.470;2023-04-03T03:22:09;10.93;;;6.63;;
19235;SDS011;9752;54.270;12.470;2023-04-03T03:27:11;7.40;;;6.80;;
19235;SDS011;9752;54.270;12.470;2023-04-03T03:32:13;8.50;;;7.70;;
19235;SDS011;9752;54.270;12.470;2023-04-03T03:37:16;7.47;;;6.80;;
19235;SDS011;9752;54.270;12.470;2023-04-03T03:42:18;8.87;;;7.10;;
19235;SDS011;9752;54.270;12.470;2023-04-03T03:47:20;7.20;;;6.60;;
19235;SDS011;9752;54.270;12.470;2023-04-03T03:52:25;6.80;;;6.30;;
19235;SDS011;9752;54.270;12.470;2023-04-03T03:57:26;6.70;;;6.40;;
19235;SDS011;9752;54.270;12.470;2023-04-03T04:02:29;6.93;;;6.40;;
19235;SDS011;9752;54.270;12.470;2023-04-03T04:07:32;9.83;;;7.17;;
19235;SDS011;9752;54.270;12.470;2023-04-03T04:12:35;7.70;;;6.60;;
19235;SDS011;9752;54.270;12.470;2023-04-03T04:17:38;7.90;;;7.50;;
19235;SDS011;9752;54.270;12.470;2023-04-03T04:22:46;9.77;;;8.33;;
19235;SDS011;9752;54.270;12.470;2023-04-03T04:27:48;9.47;;;7.00;;
19235;SDS011;9752;54.270;12.470;2023-04-03T04:32:51;7.57;;;6.93;;
19235;SDS011;9752;54.270;12.470;2023-04-03T04:37:55;7.83;;;7.20;;
19235;SDS011;9752;54.270;12.470;2023-04-03T04:42:57;9.20;;;8.23;;
19235;SDS011;9752;54.270;12.470;2023-04-03T04:47:59;8.73;;;7.97;;
19235;SDS011;9752;54.270;12.470;2023-04-03T04:53:02;10.43;;;7.20;;
19235;SDS011;9752;54.270;12.470;2023-04-03T04:58:04;7.97;;;7.27;;
19235;SDS011;9752;54.270;12.470;2023-04-03T05:03:06;8.60;;;8.00;;
19235;SDS011;9752;54.270;12.470;2023-04-03T05:08:09;10.70;;;7.83;;
19235;SDS011;9752;54.270;12.470;2023-04-03T05:13:14;9.77;;;8.27;;
19235;SDS011;9752;54.270;12.470;2023-04-03T05:18:16;8.97;;;8.17;;
19235;SDS011;9752;54.270;12.470;2023-04-03T05:23:19;19.43;;;10.23;;
19235;SDS011;9752;54.270;12.470;2023-04-03T05:28:21;9.60;;;9.00;;
19235;SDS011;9752;54.270;12.470;2023-04-03T05:33:24;9.93;;;9.33;;
19235;SDS011;9752;54.270;12.470;2023-04-03T05:38:29;10.17;;;9.60;;
19235;SDS011;9752;54.270;12.470;2023-04-03T05:43:32;10.00;;;9.20;;
19235;SDS011;9752;54.270;12.470;2023-04-03T05:48:36;10.50;;;9.70;;
19235;SDS011;9752;54.270;12.470;2023-04-03T05:53:40;10.53;;;9.93;;
19235;SDS011;9752;54.270;12.470;2023-04-03T05:58:43;11.07;;;10.07;;
19235;SDS011;9752;54.270;12.470;2023-04-03T06:03:45;11.03;;;10.23;;
19235;SDS011;9752;54.270;12.470;2023-04-03T06:08:48;10.47;;;9.87;;
19235;SDS011;9752;54.270;12.470;2023-04-03T06:13:50;10.77;;;10.07;;
19235;SDS011;9752;54.270;12.470;2023-04-03T06:18:52;10.73;;;10.13;;
19235;SDS011;9752;54.270;12.470;2023-04-03T06:23:55;11.13;;;10.33;;
19235;SDS011;9752;54.270;12.470;2023-04-03T06:28:57;11.00;;;10.40;;
19235;SDS011;9752;54.270;12.470;2023-04-03T06:33:59;10.33;;;9.63;;
19235;SDS011;9752;54.270;12.470;2023-04-03T06:39:02;10.90;;;10.00;;
19235;SDS011;9752;54.270;12.470;2023-04-03T06:44:03;12.57;;;11.47;;
19235;SDS011;9752;54.270;12.470;2023-04-03T06:49:06;11.23;;;10.30;;
19235;SDS011;9752;54.270;12.470;2023-04-03T06:54:10;11.60;;;10.80;;
19235;SDS011;9752;54.270;12.470;2023-04-03T06:59:11;11.33;;;10.70;;
19235;SDS011;9752;54.270;12.470;2023-04-03T07:04:15;13.03;;;12.03;;
19235;SDS011;9752;54.270;12.470;2023-04-03T07:09:18;13.97;;;13.13;;
19235;SDS011;9752;54.270;12.470;2023-04-03T07:14:20;14.20;;;13.20;;
19235;SDS011;9752;54.270;12.470;2023-04-03T07:19:21;14.93;;;14.00;;
19235;SDS011;9752;54.270;12.470;2023-04-03T07:24:25;14.63;;;13.70;;
19235;SDS011;9752;54.270;12.470;2023-04-03T07:29:27;14.70;;;14.10;;
19235;SDS011;9752;54.270;12.470;2023-04-03T07:34:30;14.33;;;13.63;;
19235;SDS011;9752;54.270;12.470;2023-04-03T07:39:33;14.20;;;13.50;;
19235;SDS011;9752;54.270;12.470;2023-04-03T07:44:34;14.30;;;13.70;;
19235;SDS011;9752;54.270;12.470;2023-04-03T07:49:36;15.60;;;14.50;;
19235;SDS011;9752;54.270;12.470;2023-04-03T07:54:41;14.57;;;13.97;;
19235;SDS011;9752;54.270;12.470;2023-04-03T07:59:43;15.40;;;14.60;;
19235;SDS011;9752;54.270;12.470;2023-04-03T08:04:45;16.53;;;15.40;;
19235;SDS011;9752;54.270;12.470;2023-04-03T08:09:48;14.03;;;13.23;;
19235;SDS011;9752;54.270;12.470;2023-04-03T08:14:49;14.53;;;13.83;;
19235;SDS011;9752;54.270;12.470;2023-04-03T08:19:51;14.60;;;13.80;;
19235;SDS011;9752;54.270;12.470;2023-04-03T08:24:54;15.57;;;14.57;;
19235;SDS011;9752;54.270;12.470;2023-04-03T08:29:56;14.50;;;13.60;;
19235;SDS011;9752;54.270;12.470;2023-04-03T08:34:58;13.50;;;12.80;;
19235;SDS011;9752;54.270;12.470;2023-04-03T08:40:01;14.63;;;13.90;;
19235;SDS011;9752;54.270;12.470;2023-04-03T08:45:05;16.47;;;15.50;;
19235;SDS011;9752;54.270;12.470;2023-04-03T08:50:13;13.57;;;13.07;;
19235;SDS011;9752;54.270;12.470;2023-04-03T08:55:22;14.07;;;13.47;;
19235;SDS011;9752;54.270;12.470;2023-04-03T09:00:27;13.43;;;12.93;;
19235;SDS011;9752;54.270;12.470;2023-04-03T09:05:34;13.70;;;13.20;;
19235;SDS011;9752;54.270;12.470;2023-04-03T09:10:42;14.63;;;14.00;;
19235;SDS011;9752;54.270;12.470;2023-04-03T09:15:44;14.87;;;14.07;;
19235;SDS011;9752;54.270;12.470;2023-04-03T09:20:46;14.50;;;13.60;;
19235;SDS011;9752;54.270;12.470;2023-04-03T09:25:58;15.63;;;14.10;;
19235;SDS011;9752;54.270;12.470;2023-04-03T09:31:06;14.00;;;13.30;;
19235;SDS011;9752;54.270;12.470;2023-04-03T09:36:39;14.50;;;13.80;;
19235;SDS011;9752;54.270;12.470;2023-04-03T09:41:56;14.87;;;14.13;;
19235;SDS011;9752;54.270;12.470;2023-04-03T09:46:59;15.00;;;14.30;;
19235;SDS011;9752;54.270;12.470;2023-04-03T09:52:19;14.50;;;13.53;;
19235;SDS011;9752;54.270;12.470;2023-04-03T09:57:28;13.77;;;13.07;;
19235;SDS011;9752;54.270;12.470;2023-04-03T10:02:35;13.53;;;12.70;;
19235;SDS011;9752;54.270;12.470;2023-04-03T10:07:39;13.67;;;12.97;;
19235;SDS011;9752;54.270;12.470;2023-04-03T10:12:42;15.70;;;14.47;;
19235;SDS011;9752;54.270;12.470;2023-04-03T10:17:49;13.50;;;12.90;;
19235;SDS011;9752;54.270;12.470;2023-04-03T10:22:57;15.50;;;14.70;;
19235;SDS011;9752;54.270;12.470;2023-04-03T10:28:07;15.13;;;14.20;;
19235;SDS011;9752;54.270;12.470;2023-04-03T10:33:28;15.00;;;14.23;;
19235;SDS011;9752;54.270;12.470;2023-04-03T10:38:41;15.13;;;14.03;;
19235;SDS011;9752;54.270;12.470;2023-04-03T10:43:55;15.00;;;13.93;;
19235;SDS011;9752;54.270;12.470;2023-04-03T10:49:07;14.73;;;13.83;;
19235;SDS011;9752;54.270;12.470;2023-04-03T10:54:20;15.70;;;14.50;;
19235;SDS011;9752;54.270;12.470;2023-04-03T10:59:28;15.63;;;14.80;;
19235;SDS011;9752;54.270;12.470;2023-04-03T11:04:34;15.27;;;14.03;;
19235;SDS011;9752;54.270;12.470;2023-04-03T11:09:39;14.90;;;14.00;;
19235;SDS011;9752;54.270;12.470;2023-04-03T11:14:45;14.63;;;13.93;;
19235;SDS011;9752;54.270;12.470;2023-04-03T11:19:50;14.23;;;13.53;;
19235;SDS011;9752;54.270;12.470;2023-04-03T11:24:59;14.17;;;13.47;;
19235;SDS011;9752;54.270;12.470;2023-04-03T11:30:09;15.40;;;13.97;;
19235;SDS011;9752;54.270;12.470;2023-04-03T11:35:19;14.33;;;13.60;;
19235;SDS011;9752;54.270;12.470;2023-04-03T11:40:24;14.17;;;13.40;;
19235;SDS011;9752;54.270;12.470;2023-04-03T11:45:45;14.07;;;13.40;;
19235;SDS011;9752;54.270;12.470;2023-04-03T11:50:55;14.70;;;13.90;;
19235;SDS011;9752;54.270;12.470;2023-04-03T11:55:58;14.90;;;14.10;;
19235;SDS011;9752;54.270;12.470;2023-04-03T12:01:07;15.63;;;14.60;;
19235;SDS011;9752;54.270;12.470;2023-04-03T12:11:49;15.03;;;14.20;;
19235;SDS011;9752;54.270;12.470;2023-04-03T12:16:52;15.50;;;14.80;;
19235;SDS011;9752;54.270;12.470;2023-04-03T12:22:05;15.50;;;14.70;;
19235;SDS011;9752;54.270;12.470;2023-04-03T12:27:28;15.63;;;14.70;;
19235;SDS011;9752;54.270;12.470;2023-04-03T12:32:40;15.87;;;14.80;;
19235;SDS011;9752;54.270;12.470;2023-04-03T12:37:51;15.83;;;14.83;;
19235;SDS011;9752;54.270;12.470;2023-04-03T12:43:23;15.87;;;14.93;;
19235;SDS011;9752;54.270;12.470;2023-04-03T12:48:38;16.40;;;15.27;;
19235;SDS011;9752;54.270;12.470;2023-04-03T12:53:48;15.80;;;14.90;;
19235;SDS011;9752;54.270;12.470;2023-04-03T12:58:51;16.37;;;15.10;;
19235;SDS011;9752;54.270;12.470;2023-04-03T13:03:56;15.30;;;14.47;;
19235;SDS011;9752;54.270;12.470;2023-04-03T13:09:00;15.83;;;15.03;;
19235;SDS011;9752;54.270;12.470;2023-04-03T13:14:02;15.20;;;14.50;;
19235;SDS011;9752;54.270;12.470;2023-04-03T13:19:14;16.00;;;15.20;;
19235;SDS011;9752;54.270;12.470;2023-04-03T13:24:18;16.33;;;15.27;;
19235;SDS011;9752;54.270;12.470;2023-04-03T13:29:22;16.27;;;15.40;;
19235;SDS011;9752;54.270;12.470;2023-04-03T13:34:29;16.80;;;15.13;;
19235;SDS011;9752;54.270;12.470;2023-04-03T13:39:38;16.30;;;15.23;;
19235;SDS011;9752;54.270;12.470;2023-04-03T13:44:40;16.30;;;15.20;;
19235;SDS011;9752;54.270;12.470;2023-04-03T13:49:44;17.53;;;16.20;;
19235;SDS011;9752;54.270;12.470;2023-04-03T13:54:47;16.47;;;15.43;;
19235;SDS011;9752;54.270;12.470;2023-04-03T13:59:54;15.73;;;14.67;;
19235;SDS011;9752;54.270;12.470;2023-04-03T14:04:58;15.30;;;14.40;;
19235;SDS011;9752;54.270;12.470;2023-04-03T14:10:02;14.90;;;14.27;;
19235;SDS011;9752;54.270;12.470;2023-04-03T14:15:05;14.80;;;14.10;;
19235;SDS011;9752;54.270;12.470;2023-04-03T14:20:19;15.03;;;14.13;;
19235;SDS011;9752;54.270;12.470;2023-04-03T14:25:22;15.10;;;14.40;;
19235;SDS011;9752;54.270;12.470;2023-04-03T14:30:25;15.53;;;14.83;;
19235;SDS011;9752;54.270;12.470;2023-04-03T14:35:30;15.53;;;14.73;;
19235;SDS011;9752;54.270;12.470;2023-04-03T14:40:31;16.33;;;15.03;;
19235;SDS011;9752;54.270;12.470;2023-04-03T14:45:33;15.90;;;14.90;;
19235;SDS011;9752;54.270;12.470;2023-04-03T14:50:36;15.10;;;14.20;;
19235;SDS011;9752;54.270;12.470;2023-04-03T14:55:38;16.30;;;15.30;;
19235;SDS011;9752;54.270;12.470;2023-04-03T15:00:40;14.63;;;13.97;;
19235;SDS011;9752;54.270;12.470;2023-04-03T15:05:43;14.90;;;14.20;;
19235;SDS011;9752;54.270;12.470;2023-04-03T15:10:47;14.13;;;13.53;;
19235;SDS011;9752;54.270;12.470;2023-04-03T15:15:49;14.70;;;14.10;;
19235;SDS011;9752;54.270;12.470;2023-04-03T15:20:54;15.80;;;15.00;;
19235;SDS011;9752;54.270;12.470;2023-04-03T15:25:56;20.60;;;19.20;;
19235;SDS011;9752;54.270;12.470;2023-04-03T15:30:58;14.97;;;14.17;;
19235;SDS011;9752;54.270;12.470;2023-04-03T15:36:02;15.67;;;14.87;;
19235;SDS011;9752;54.270;12.470;2023-04-03T15:41:04;14.70;;;14.10;;
19235;SDS011;9752;54.270;12.470;2023-04-03T15:46:06;15.40;;;14.57;;
19235;SDS011;9752;54.270;12.470;2023-04-03T15:51:09;82.50;;;52.93;;
19235;SDS011;9752;54.270;12.470;2023-04-03T15:56:11;87.23;;;52.23;;
19235;SDS011;9752;54.270;12.470;2023-04-03T16:01:13;80.20;;;62.97;;
19235;SDS011;9752;54.270;12.470;2023-04-03T16:06:16;15.33;;;14.37;;
19235;SDS011;9752;54.270;12.470;2023-04-03T16:11:19;14.67;;;13.97;;
19235;SDS011;9752;54.270;12.470;2023-04-03T16:16:20;15.40;;;14.50;;
19235;SDS011;9752;54.270;12.470;2023-04-03T16:21:24;14.93;;;13.90;;
19235;SDS011;9752;54.270;12.470;2023-04-03T16:26:26;14.77;;;14.17;;
19235;SDS011;9752;54.270;12.470;2023-04-03T16:31:28;14.03;;;13.33;;
19235;SDS011;9752;54.270;12.470;2023-04-03T16:36:31;14.17;;;13.57;;
19235;SDS011;9752;54.270;12.470;2023-04-03T16:41:32;15.07;;;14.30;;
19235;SDS011;9752;54.270;12.470;2023-04-03T16:46:34;14.30;;;13.53;;
19235;SDS011;9752;54.270;12.470;2023-04-03T16:51:37;15.90;;;15.10;;
19235;SDS011;9752;54.270;12.470;2023-04-03T16:56:39;15.43;;;14.53;;
19235;SDS011;9752;54.270;12.470;2023-04-03T17:01:41;14.13;;;13.53;;
19235;SDS011;9752;54.270;12.470;2023-04-03T17:06:44;15.87;;;14.60;;
19235;SDS011;9752;54.270;12.470;2023-04-03T17:11:46;15.40;;;14.60;;
19235;SDS011;9752;54.270;12.470;2023-04-03T17:16:48;15.90;;;15.00;;
19235;SDS011;9752;54.270;12.470;2023-04-03T17:21:52;15.93;;;14.93;;
19235;SDS011;9752;54.270;12.470;2023-04-03T17:26:54;15.40;;;14.60;;
19235;SDS011;9752;54.270;12.470;2023-04-03T17:31:55;15.43;;;14.60;;
19235;SDS011;9752;54.270;12.470;2023-04-03T17:36:58;15.50;;;14.60;;
19235;SDS011;9752;54.270;12.470;2023-04-03T17:42:00;15.63;;;14.70;;
19235;SDS011;9752;54.270;12.470;2023-04-03T17:47:02;17.13;;;16.07;;
19235;SDS011;9752;54.270;12.470;2023-04-03T17:52:05;16.47;;;15.37;;
19235;SDS011;9752;54.270;12.470;2023-04-03T17:57:06;15.20;;;14.40;;
19235;SDS011;9752;54.270;12.470;2023-04-03T18:02:08;16.03;;;15.13;;
19235;SDS011;9752;54.270;12.470;2023-04-03T18:07:11;14.90;;;14.07;;
19235;SDS011;9752;54.270;12.470;2023-04-03T18:12:13;14.60;;;13.80;;
19235;SDS011;9752;54.270;12.470;2023-04-03T18:17:15;12.93;;;11.90;;
19235;SDS011;9752;54.270;12.470;2023-04-03T18:22:20;13.00;;;12.20;;
19235;SDS011;9752;54.270;12.470;2023-04-03T18:27:24;13.07;;;11.77;;
19235;SDS011;9752;54.270;12.470;2023-04-03T18:32:27;13.13;;;12.27;;
19235;SDS011;9752;54.270;12.470;2023-04-03T18:37:30;11.60;;;10.77;;
19235;SDS011;9752;54.270;12.470;2023-04-03T18:42:32;10.87;;;10.00;;
19235;SDS011;9752;54.270;12.470;2023-04-03T18:47:33;10.10;;;9.30;;
19235;SDS011;9752;54.270;12.470;2023-04-03T18:52:37;10.37;;;9.47;;
19235;SDS011;9752;54.270;12.470;2023-04-03T18:57:39;13.53;;;12.33;;
19235;SDS011;9752;54.270;12.470;2023-04-03T19:02:40;10.47;;;9.43;;
19235;SDS011;9752;54.270;12.470;2023-04-03T19:07:44;8.77;;;8.27;;
19235;SDS011;9752;54.270;12.470;2023-04-03T19:12:46;8.33;;;7.73;;
19235;SDS011;9752;54.270;12.470;2023-04-03T19:17:49;10.10;;;9.20;;
19235;SDS011;9752;54.270;12.470;2023-04-03T19:22:53;8.93;;;8.20;;
19235;SDS011;9752;54.270;12.470;2023-04-03T19:27:55;9.80;;;8.90;;
19235;SDS011;9752;54.270;12.470;2023-04-03T19:32:56;8.83;;;8.10;;
19235;SDS011;9752;54.270;12.470;2023-04-03T19:37:59;9.80;;;8.37;;
19235;SDS011;9752;54.270;12.470;2023-04-03T19:43:01;9.70;;;8.73;;
19235;SDS011;9752;54.270;12.470;2023-04-03T19:48:03;9.60;;;8.73;;
19235;SDS011;9752;54.270;12.470;2023-04-03T19:53:06;10.23;;;9.43;;
19235;SDS011;9752;54.270;12.470;2023-04-03T19:58:10;11.70;;;9.40;;
19235;SDS011;9752;54.270;12.470;2023-04-03T20:03:12;10.20;;;9.13;;
19235;SDS011;9752;54.270;12.470;2023-04-03T20:08:15;10.43;;;9.40;;
19235;SDS011;9752;54.270;12.470;2023-04-03T20:13:17;9.53;;;8.87;;
19235;SDS011;9752;54.270;12.470;2023-04-03T20:18:19;10.17;;;9.17;;
19235;SDS011;9752;54.270;12.470;2023-04-03T20:23:22;10.60;;;8.53;;
19235;SDS011;9752;54.270;12.470;2023-04-03T20:28:25;9.27;;;8.50;;
19235;SDS011;9752;54.270;12.470;2023-04-03T20:33:28;10.90;;;9.43;;
19235;SDS011;9752;54.270;12.470;2023-04-03T20:38:31;10.83;;;9.73;;
19235;SDS011;9752;54.270;12.470;2023-04-03T20:43:33;15.17;;;9.80;;
19235;SDS011;9752;54.270;12.470;2023-04-03T20:48:34;10.83;;;9.83;;
19235;SDS011;9752;54.270;12.470;2023-04-03T20:53:38;10.77;;;9.70;;
19235;SDS011;9752;54.270;12.470;2023-04-03T20:58:40;11.37;;;9.43;;
19235;SDS011;9752;54.270;12.470;2023-04-03T21:03:45;12.77;;;9.40;;
19235;SDS011;9752;54.270;12.470;2023-04-03T21:20:07;11.67;;;7.40;;
19235;SDS011;9752;54.270;12.470;2023-04-03T21:25:09;7.97;;;7.37;;
19235;SDS011;9752;54.270;12.470;2023-04-03T21:30:11;8.13;;;7.30;;
19235;SDS011;9752;54.270;12.470;2023-04-03T21:35:16;8.00;;;7.40;;
19235;SDS011;9752;54.270;12.470;2023-04-03T21:40:17;8.13;;;7.53;;
19235;SDS011;9752;54.270;12.470;2023-04-03T21:45:19;10.87;;;9.50;;
19235;SDS011;9752;54.270;12.470;2023-04-03T21:50:23;10.37;;;9.37;;
19235;SDS011;9752;54.270;12.470;2023-04-03T21:55:24;9.60;;;8.73;;
19235;SDS011;9752;54.270;12.470;2023-04-03T22:00:26;10.13;;;8.53;;
19235;SDS011;9752;54.270;12.470;2023-04-03T22:05:31;9.37;;;8.57;;
19235;SDS011;9752;54.270;12.470;2023-04-03T22:10:34;14.57;;;10.30;;
19235;SDS011;9752;54.270;12.470;2023-04-03T22:15:39;26.63;;;13.23;;
19235;SDS011;9752;54.270;12.470;2023-04-03T22:20:44;19.70;;;13.23;;
19235;SDS011;9752;54.270;12.470;2023-04-03T22:25:55;18.03;;;11.70;;
19235;SDS011;9752;54.270;12.470;2023-04-03T22:30:59;10.07;;;9.00;;
19235;SDS011;9752;54.270;12.470;2023-04-03T22:36:03;12.23;;;10.07;;
19235;SDS011;9752;54.270;12.470;2023-04-03T22:41:06;9.80;;;8.83;;
19235;SDS011;9752;54.270;12.470;2023-04-03T22:46:08;9.10;;;8.30;;
19235;SDS011;9752;54.270;12.470;2023-04-03T22:51:11;11.40;;;8.77;;
19235;SDS011;9752;54.270;12.470;2023-04-03T22:56:13;10.43;;;9.27;;
19235;SDS011;9752;54.270;12.470;2023-04-03T23:01:15;20.47;;;13.13;;
19235;SDS011;9752;54.270;12.470;2023-04-03T23:06:19;20.67;;;12.53;;
19235;SDS011;9752;54.270;12.470;2023-04-03T23:11:21;21.97;;;13.00;;
19235;SDS011;9752;54.270;12.470;2023-04-03T23:16:23;21.73;;;13.97;;
19235;SDS011;9752;54.270;12.470;2023-04-03T23:21:26;18.47;;;11.47;;
19235;SDS011;9752;54.270;12.470;2023-04-03T23:26:28;16.20;;;11.53;;
19235;SDS011;9752;54.270;12.470;2023-04-03T23:31:29;18.13;;;13.23;;
19235;SDS011;9752;54.270;12.470;2023-04-03T23:36:32;12.20;;;10.43;;
19235;SDS011;9752;54.270;12.470;2023-04-03T23:41:34;10.23;;;9.10;;
19235;SDS011;9752;54.270;12.470;2023-04-03T23:46:36;11.10;;;8.10;;
19235;SDS011;9752;54.270;12.470;2023-04-03T23:51:39;8.03;;;7.30;;
19235;SDS011;9752;54.270;12.470;2023-04-03T23:56:41;12.83;;;7.60;;
